Time;durP1;ratioP1;P1;durP2;ratioP2;P2;SDS_P1;SDS_P2;PMS_P1;PMS_P2;Temp;Humidity;BMP_temperature;BMP_pressure;BME280_temperature;BME280_humidity;BME280_pressure;Samples;Min_cycle;Max_cycle;Signal;HPM_P1;HPM_P2
2023/08/22 00:00:45;;;;;;;8.60;2.17;;;19.10;99.90;;;;;;4938189;28;20042;-87
2023/08/22 00:03:11;;;;;;;6.05;1.80;;;19.10;99.90;;;;;;4937052;29;20081;-85
2023/08/22 00:05:37;;;;;;;4.32;1.88;;;19.10;99.90;;;;;;4943491;28;20159;-86
2023/08/22 00:08:05;;;;;;;3.25;1.85;;;19.10;99.90;;;;;;4945149;29;20113;-86
2023/08/22 00:10:34;;;;;;;10.55;2.30;;;19.10;99.90;;;;;;4936910;29;20043;-87
2023/08/22 00:13:00;;;;;;;5.57;1.58;;;19.10;99.90;;;;;;4940753;28;20027;-87
2023/08/22 00:15:29;;;;;;;12.00;2.38;;;19.10;99.90;;;;;;4941478;29;20078;-86
2023/08/22 00:17:55;;;;;;;11.48;2.05;;;19.10;99.90;;;;;;4943714;28;20074;-86
2023/08/22 00:20:22;;;;;;;11.55;2.63;;;19.00;99.90;;;;;;4939515;28;20074;-86
2023/08/22 00:22:48;;;;;;;14.45;3.13;;;19.00;99.90;;;;;;4943808;28;20035;-86
2023/08/22 00:25:13;;;;;;;4.45;2.28;;;18.90;99.90;;;;;;4945944;29;20090;-87
2023/08/22 00:27:39;;;;;;;5.57;1.70;;;18.90;99.90;;;;;;4942375;28;20469;-86
2023/08/22 00:30:05;;;;;;;5.35;1.63;;;18.80;99.90;;;;;;4942298;28;20023;-86
2023/08/22 00:32:31;;;;;;;8.73;2.10;;;18.80;99.90;;;;;;4938519;29;20531;-86
2023/08/22 00:34:57;;;;;;;9.20;1.70;;;18.80;99.90;;;;;;4934767;29;20056;-85
2023/08/22 00:37:23;;;;;;;12.27;2.05;;;18.80;99.90;;;;;;4932190;29;20122;-86
2023/08/22 00:39:49;;;;;;;6.00;2.05;;;18.70;99.90;;;;;;4941710;29;20504;-87
2023/08/22 00:42:15;;;;;;;5.53;1.38;;;18.70;99.90;;;;;;4924970;28;20047;-86
2023/08/22 00:44:40;;;;;;;14.77;2.10;;;18.60;99.90;;;;;;4943488;29;20043;-88
2023/08/22 00:47:06;;;;;;;5.07;1.90;;;18.60;99.90;;;;;;4943907;28;20441;-87
2023/08/22 00:49:33;;;;;;;3.67;1.88;;;18.60;99.90;;;;;;4945152;28;20036;-87
2023/08/22 00:52:02;;;;;;;4.38;1.90;;;18.60;99.90;;;;;;4943923;28;20386;-87
2023/08/22 00:54:30;;;;;;;3.17;1.40;;;18.50;99.90;;;;;;4938018;28;20023;-87
2023/08/22 00:56:56;;;;;;;6.03;1.90;;;18.50;99.90;;;;;;4938823;29;20496;-87
2023/08/22 00:59:26;;;;;;;12.85;2.22;;;18.50;99.90;;;;;;4919222;28;20035;-88
2023/08/22 01:01:52;;;;;;;6.93;2.50;;;18.50;99.90;;;;;;4936275;29;20024;-87
2023/08/22 01:04:18;;;;;;;7.32;1.80;;;18.40;99.90;;;;;;4937183;29;20015;-84
2023/08/22 01:07:02;;;;;;;8.95;2.25;;;18.40;99.90;;;;;;4942672;28;20031;-86
2023/08/22 01:09:45;;;;;;;7.82;2.00;;;18.40;99.90;;;;;;4938856;28;20031;-87
2023/08/22 01:12:23;;;;;;;4.78;1.63;;;18.40;99.90;;;;;;4924914;29;20389;-86
2023/08/22 01:14:59;;;;;;;6.70;2.08;;;18.30;99.90;;;;;;4936182;29;20501;-87
2023/08/22 01:17:25;;;;;;;5.05;2.08;;;18.30;99.90;;;;;;4941140;28;20648;-86
2023/08/22 01:19:51;;;;;;;8.13;2.05;;;18.30;99.90;;;;;;4942051;28;20027;-86
2023/08/22 01:22:25;;;;;;;4.63;1.42;;;18.20;99.90;;;;;;4942353;28;20046;-84
2023/08/22 01:24:50;;;;;;;6.35;1.80;;;18.20;99.90;;;;;;4942703;28;20046;-87
2023/08/22 01:27:18;;;;;;;8.68;1.85;;;18.10;99.90;;;;;;4937400;28;20286;-87
2023/08/22 01:29:58;;;;;;;6.78;1.80;;;18.10;99.90;;;;;;4941308;28;20497;-87
2023/08/22 01:32:28;;;;;;;4.57;1.50;;;18.20;99.90;;;;;;4932540;28;20032;-87
2023/08/22 01:34:58;;;;;;;7.38;3.25;;;18.20;99.90;;;;;;4935953;29;20035;-86
2023/08/22 01:37:25;;;;;;;2.25;1.30;;;18.20;99.90;;;;;;4938789;29;20182;-87
2023/08/22 01:39:57;;;;;;;3.35;1.50;;;18.30;99.90;;;;;;4934529;29;20027;-87
2023/08/22 01:42:25;;;;;;;2.47;1.50;;;18.30;99.90;;;;;;4945834;28;20042;-86
2023/08/22 01:44:51;;;;;;;5.78;1.63;;;18.30;99.90;;;;;;4938418;29;20178;-86
2023/08/22 01:47:20;;;;;;;12.43;2.40;;;18.30;99.90;;;;;;4935694;28;20102;-83
2023/08/22 01:49:45;;;;;;;11.52;1.60;;;18.30;99.90;;;;;;4943328;28;20485;-87
2023/08/22 01:52:11;;;;;;;7.88;2.78;;;18.30;99.90;;;;;;4933674;28;20032;-85
2023/08/22 01:54:38;;;;;;;5.72;1.60;;;18.20;99.90;;;;;;4939767;29;20046;-87
2023/08/22 01:57:04;;;;;;;4.15;2.05;;;18.20;99.90;;;;;;4941798;28;20050;-86
2023/08/22 01:59:29;;;;;;;4.22;1.65;;;18.20;99.90;;;;;;4936842;29;20417;-87
2023/08/22 02:01:55;;;;;;;7.15;2.00;;;18.20;99.90;;;;;;4943687;28;20477;-86
2023/08/22 02:04:21;;;;;;;9.90;2.30;;;18.20;99.90;;;;;;4941975;28;20068;-87
2023/08/22 02:06:46;;;;;;;17.05;2.50;;;18.10;99.90;;;;;;4943340;28;20087;-87
2023/08/22 02:09:13;;;;;;;4.40;1.90;;;18.10;99.90;;;;;;4937027;28;20055;-86
2023/08/22 02:11:39;;;;;;;3.80;1.67;;;18.10;99.90;;;;;;4940848;28;20461;-87
2023/08/22 02:14:04;;;;;;;7.70;2.45;;;18.10;99.90;;;;;;4947739;28;21100;-87
2023/08/22 02:16:30;;;;;;;6.05;1.88;;;18.10;99.90;;;;;;4941428;28;20051;-87
2023/08/22 02:18:56;;;;;;;17.45;3.15;;;18.10;99.90;;;;;;4946664;28;20078;-87
2023/08/22 02:21:21;;;;;;;6.60;2.15;;;18.10;99.90;;;;;;4942310;28;20031;-87
2023/08/22 02:23:47;;;;;;;4.20;1.65;;;18.10;99.90;;;;;;4944971;28;20134;-86
2023/08/22 02:26:13;;;;;;;2.92;1.55;;;18.10;99.90;;;;;;4946276;28;20038;-84
2023/08/22 02:28:38;;;;;;;2.60;1.60;;;18.10;99.90;;;;;;4946667;28;20024;-86
2023/08/22 02:31:04;;;;;;;3.83;1.45;;;18.10;99.90;;;;;;4946143;29;20042;-87
2023/08/22 02:33:30;;;;;;;3.72;1.85;;;18.20;99.90;;;;;;4950318;28;20401;-87
2023/08/22 02:35:55;;;;;;;6.55;1.58;;;18.20;99.90;;;;;;4949438;29;20046;-86
2023/08/22 02:38:21;;;;;;;4.40;1.70;;;18.20;99.90;;;;;;4941947;28;20444;-87
2023/08/22 02:40:48;;;;;;;5.68;2.30;;;18.10;99.90;;;;;;4947584;29;20353;-87
2023/08/22 02:43:14;;;;;;;7.05;2.00;;;18.10;99.90;;;;;;4944810;28;20474;-87
2023/08/22 02:45:39;;;;;;;7.78;2.30;;;18.10;99.90;;;;;;4938347;29;20039;-87
2023/08/22 02:48:08;;;;;;;13.40;2.60;;;18.00;99.90;;;;;;4938694;29;20031;-84
2023/08/22 02:50:33;;;;;;;9.43;2.40;;;18.00;99.90;;;;;;4942467;28;20077;-87
2023/08/22 02:52:59;;;;;;;3.42;1.77;;;17.90;99.90;;;;;;4946456;28;20035;-87
2023/08/22 02:55:25;;;;;;;14.18;2.00;;;17.90;99.90;;;;;;4947617;28;20023;-85
2023/08/22 02:57:50;;;;;;;10.90;2.47;;;17.80;99.90;;;;;;4939000;29;20038;-87
2023/08/22 03:00:16;;;;;;;8.07;1.83;;;17.80;99.90;;;;;;4935725;28;20091;-87
2023/08/22 03:02:41;;;;;;;7.25;2.42;;;17.70;99.90;;;;;;4936379;29;20027;-86
2023/08/22 03:05:11;;;;;;;18.42;3.28;;;17.70;99.90;;;;;;4936947;28;20478;-86
2023/08/22 03:07:37;;;;;;;8.93;2.40;;;17.70;99.90;;;;;;4946756;28;20050;-87
2023/08/22 03:10:03;;;;;;;8.70;2.53;;;17.70;99.90;;;;;;4932199;28;20480;-87
2023/08/22 03:12:35;;;;;;;8.02;2.65;;;17.60;99.90;;;;;;4945427;29;20400;-86
2023/08/22 03:15:02;;;;;;;4.82;2.00;;;17.60;99.90;;;;;;4947279;28;20045;-87
2023/08/22 03:17:28;;;;;;;10.77;2.30;;;17.60;99.90;;;;;;4945556;28;20035;-87
2023/08/22 03:19:53;;;;;;;5.80;2.03;;;17.60;99.90;;;;;;4946521;28;20027;-87
2023/08/22 03:22:22;;;;;;;10.07;2.60;;;17.60;99.90;;;;;;4945170;28;20417;-87
2023/08/22 03:24:48;;;;;;;5.68;2.53;;;17.60;99.90;;;;;;4945949;28;20300;-87
2023/08/22 03:27:13;;;;;;;8.82;2.35;;;17.50;99.90;;;;;;4944694;28;20033;-86
2023/08/22 03:29:42;;;;;;;8.23;2.10;;;17.50;99.90;;;;;;4940385;28;20063;-87
2023/08/22 03:32:07;;;;;;;4.85;2.05;;;17.50;99.90;;;;;;4944648;28;20027;-86
2023/08/22 03:34:33;;;;;;;2.75;1.60;;;17.50;99.90;;;;;;4944916;28;20042;-86
2023/08/22 03:36:58;;;;;;;7.47;2.30;;;17.50;99.90;;;;;;4946332;28;20039;-87
2023/08/22 03:39:24;;;;;;;4.20;2.00;;;17.50;99.90;;;;;;4941076;28;20027;-87
2023/08/22 03:41:50;;;;;;;5.80;2.00;;;17.50;99.90;;;;;;4941931;29;20382;-86
2023/08/22 03:44:15;;;;;;;2.72;1.98;;;17.50;99.90;;;;;;4947847;28;20023;-86
2023/08/22 03:46:41;;;;;;;5.28;2.25;;;17.40;99.90;;;;;;4943009;28;20279;-86
2023/08/22 03:49:06;;;;;;;5.10;2.03;;;17.50;99.90;;;;;;4942990;28;20082;-86
2023/08/22 03:51:33;;;;;;;7.82;3.05;;;17.40;99.90;;;;;;4936109;29;20035;-84
2023/08/22 03:53:59;;;;;;;9.18;2.42;;;17.40;99.90;;;;;;4941332;28;20449;-87
2023/08/22 03:56:27;;;;;;;11.73;2.80;;;17.40;99.90;;;;;;4937039;28;20474;-86
2023/08/22 03:59:01;;;;;;;9.45;2.58;;;17.40;99.90;;;;;;4946097;28;20302;-87
2023/08/22 04:01:28;;;;;;;12.70;2.60;;;17.30;99.90;;;;;;4942869;29;20263;-83
2023/08/22 04:03:53;;;;;;;13.55;2.88;;;17.30;99.90;;;;;;4933278;28;20439;-87
2023/08/22 04:06:27;;;;;;;11.35;2.25;;;17.20;99.90;;;;;;4940822;28;20062;-87
2023/08/22 04:08:53;;;;;;;9.38;2.08;;;17.30;99.90;;;;;;4941630;28;20015;-85
2023/08/22 04:11:20;;;;;;;5.07;2.15;;;17.20;99.90;;;;;;4949966;28;20034;-87
2023/08/22 04:13:45;;;;;;;9.32;2.25;;;17.10;99.90;;;;;;4945878;28;20752;-87
2023/08/22 04:16:11;;;;;;;5.28;2.22;;;17.10;99.90;;;;;;4949055;28;20039;-85
2023/08/22 04:18:37;;;;;;;5.95;2.17;;;17.20;99.90;;;;;;4939810;28;20374;-87
2023/08/22 04:21:03;;;;;;;11.23;2.47;;;17.20;99.90;;;;;;4945240;28;20031;-86
2023/08/22 04:23:29;;;;;;;6.97;2.05;;;17.10;99.90;;;;;;4940865;29;20028;-86
2023/08/22 04:25:55;;;;;;;11.93;2.50;;;17.20;99.90;;;;;;4944571;29;20078;-85
2023/08/22 04:28:20;;;;;;;12.95;2.65;;;17.10;99.90;;;;;;4934748;29;20055;-87
2023/08/22 04:30:47;;;;;;;6.03;2.60;;;17.10;99.90;;;;;;4942664;28;20031;-86
2023/08/22 04:33:15;;;;;;;6.90;2.03;;;17.10;99.90;;;;;;4942910;28;20039;-86
2023/08/22 04:35:41;;;;;;;5.35;2.42;;;17.10;99.90;;;;;;4944594;28;20043;-85
2023/08/22 04:38:07;;;;;;;5.95;1.98;;;17.10;99.90;;;;;;4944803;28;20038;-86
2023/08/22 04:40:33;;;;;;;8.10;2.75;;;17.10;99.90;;;;;;4947259;28;20039;-86
2023/08/22 04:42:58;;;;;;;7.40;2.10;;;17.10;99.90;;;;;;4940942;29;20045;-85
2023/08/22 04:45:24;;;;;;;6.90;2.47;;;17.20;99.90;;;;;;4942301;28;20031;-86
2023/08/22 04:47:50;;;;;;;7.45;2.25;;;17.20;99.90;;;;;;4945049;28;20031;-86
2023/08/22 04:50:15;;;;;;;8.85;2.40;;;17.20;99.90;;;;;;4944995;29;20038;-86
2023/08/22 04:52:41;;;;;;;8.65;2.35;;;17.20;99.90;;;;;;4931495;29;20074;-86
2023/08/22 04:55:08;;;;;;;10.48;2.28;;;17.20;99.90;;;;;;4949755;28;20035;-83
2023/08/22 04:57:33;;;;;;;4.90;1.92;;;17.20;99.90;;;;;;4942802;29;20148;-86
2023/08/22 04:59:59;;;;;;;7.82;2.38;;;17.20;99.90;;;;;;4939753;29;20077;-85
2023/08/22 05:02:25;;;;;;;4.03;2.30;;;17.20;99.90;;;;;;4940726;28;20031;-85
2023/08/22 05:04:50;;;;;;;12.55;2.67;;;17.30;99.90;;;;;;4939756;29;20078;-86
2023/08/22 05:07:19;;;;;;;5.90;2.15;;;17.30;99.90;;;;;;4944076;29;20028;-87
2023/08/22 05:09:44;;;;;;;8.95;2.47;;;17.30;99.90;;;;;;4948572;28;20027;-86
2023/08/22 05:12:10;;;;;;;5.32;1.95;;;17.40;99.90;;;;;;4924411;29;20507;-84
2023/08/22 05:14:35;;;;;;;4.78;2.38;;;17.40;99.90;;;;;;4941802;29;20082;-86
2023/08/22 05:17:01;;;;;;;4.35;2.17;;;17.50;99.90;;;;;;4938139;28;20570;-86
2023/08/22 05:19:27;;;;;;;2.90;1.90;;;17.60;99.90;;;;;;4950631;28;20504;-85
2023/08/22 05:21:52;;;;;;;4.65;1.75;;;17.60;99.90;;;;;;4942667;29;20114;-86
2023/08/22 05:24:18;;;;;;;4.30;2.13;;;17.70;99.90;;;;;;4941217;28;20031;-86
2023/08/22 05:26:46;;;;;;;5.22;2.33;;;17.80;99.90;;;;;;4943420;29;20038;-86
2023/08/22 05:29:12;;;;;;;3.50;1.90;;;17.90;99.90;;;;;;4944298;28;20438;-84
2023/08/22 05:31:38;;;;;;;2.47;1.80;;;17.90;99.90;;;;;;4943416;28;20477;-83
2023/08/22 05:34:07;;;;;;;6.30;2.72;;;18.00;99.90;;;;;;4939782;28;20019;-87
2023/08/22 05:36:32;;;;;;;10.65;2.67;;;18.00;99.90;;;;;;4943383;28;20083;-87
2023/08/22 05:39:00;;;;;;;15.00;3.83;;;18.00;99.90;;;;;;4941452;28;20051;-86
2023/08/22 05:41:25;;;;;;;5.47;2.38;;;18.10;99.90;;;;;;4925745;29;20078;-86
2023/08/22 05:43:51;;;;;;;6.40;2.22;;;18.10;99.90;;;;;;4935246;29;20035;-85
2023/08/22 05:46:16;;;;;;;4.70;1.98;;;18.20;99.90;;;;;;4940661;28;20504;-87
2023/08/22 05:48:42;;;;;;;6.82;2.05;;;18.20;99.90;;;;;;4941504;29;20034;-84
2023/08/22 05:51:10;;;;;;;5.65;2.28;;;18.30;99.90;;;;;;4937635;29;20039;-84
2023/08/22 05:53:36;;;;;;;9.52;2.63;;;18.40;99.90;;;;;;4944390;28;20041;-86
2023/08/22 05:56:02;;;;;;;8.55;2.40;;;18.40;99.90;;;;;;4951887;28;20400;-86
2023/08/22 05:58:30;;;;;;;12.38;2.65;;;18.50;99.90;;;;;;4934342;28;20123;-86
2023/08/22 06:00:56;;;;;;;5.70;2.20;;;18.60;99.90;;;;;;4948923;28;20078;-85
2023/08/22 06:03:22;;;;;;;9.02;2.75;;;18.70;99.90;;;;;;4950962;29;20433;-86
2023/08/22 06:05:48;;;;;;;10.93;2.78;;;18.70;99.90;;;;;;4951032;28;20038;-87
2023/08/22 06:08:14;;;;;;;7.88;2.35;;;18.90;99.90;;;;;;4944252;29;20035;-86
2023/08/22 06:10:43;;;;;;;6.50;2.22;;;19.00;99.90;;;;;;4948854;29;20024;-87
2023/08/22 06:13:08;;;;;;;12.73;3.13;;;19.00;99.90;;;;;;4941817;29;20063;-88
2023/08/22 06:15:34;;;;;;;7.80;2.20;;;19.00;99.90;;;;;;4940665;28;20031;-87
2023/08/22 06:17:59;;;;;;;10.60;2.22;;;19.10;99.90;;;;;;4950468;28;20035;-85
2023/08/22 06:20:25;;;;;;;11.52;2.65;;;19.10;99.90;;;;;;4941936;28;20027;-86
2023/08/22 06:22:51;;;;;;;4.45;2.05;;;19.10;99.90;;;;;;4948612;28;20114;-86
2023/08/22 06:25:16;;;;;;;14.88;2.42;;;19.10;99.90;;;;;;4946660;28;20074;-86
2023/08/22 06:27:42;;;;;;;13.15;2.35;;;19.10;99.90;;;;;;4946363;28;20031;-84
2023/08/22 06:30:08;;;;;;;4.15;2.20;;;19.10;99.90;;;;;;4944381;28;20027;-86
2023/08/22 06:32:33;;;;;;;5.03;1.77;;;19.20;99.90;;;;;;4946196;28;20066;-86
2023/08/22 06:35:03;;;;;;;7.18;2.20;;;19.20;99.90;;;;;;4945230;28;20643;-87
2023/08/22 06:37:29;;;;;;;7.97;2.65;;;19.20;99.90;;;;;;4944369;28;20039;-86
2023/08/22 06:39:55;;;;;;;10.05;2.35;;;19.20;99.90;;;;;;4948214;29;20114;-84
2023/08/22 06:42:20;;;;;;;5.43;2.60;;;19.20;99.90;;;;;;4943920;28;20035;-86
2023/08/22 06:44:46;;;;;;;13.93;2.88;;;19.30;99.90;;;;;;4948769;28;20084;-85
2023/08/22 06:47:11;;;;;;;8.02;2.40;;;19.30;99.90;;;;;;4943349;28;20118;-86
2023/08/22 06:49:37;;;;;;;10.85;2.70;;;19.40;99.90;;;;;;4948146;28;20062;-86
2023/08/22 06:52:03;;;;;;;12.95;2.65;;;19.50;99.90;;;;;;4938835;28;20030;-84
2023/08/22 06:54:30;;;;;;;6.85;2.67;;;19.50;99.90;;;;;;4945616;28;20019;-87
2023/08/22 06:56:55;;;;;;;14.13;2.45;;;19.50;99.90;;;;;;4937574;28;20168;-85
2023/08/22 06:59:21;;;;;;;8.40;2.30;;;19.50;99.90;;;;;;4945641;29;20162;-85
2023/08/22 07:01:48;;;;;;;3.85;1.90;;;19.60;99.90;;;;;;4923751;29;20027;-86
2023/08/22 07:04:13;;;;;;;13.65;2.90;;;19.60;99.90;;;;;;4939391;29;20150;-86
2023/08/22 07:06:39;;;;;;;8.98;2.35;;;19.60;99.90;;;;;;4940439;28;20118;-87
2023/08/22 07:09:04;;;;;;;4.97;2.42;;;19.60;99.90;;;;;;4945131;29;20031;-85
2023/08/22 07:11:30;;;;;;;9.73;3.00;;;19.60;99.90;;;;;;4937695;29;20030;-86
2023/08/22 07:13:56;;;;;;;15.13;2.60;;;19.60;99.90;;;;;;4941666;28;20421;-84
2023/08/22 07:16:21;;;;;;;7.70;2.47;;;19.50;99.90;;;;;;4942004;28;20050;-86
2023/08/22 07:18:47;;;;;;;6.22;2.15;;;19.50;99.90;;;;;;4942559;28;20035;-86
2023/08/22 07:21:13;;;;;;;4.70;2.10;;;19.50;99.90;;;;;;4942659;28;20031;-85
2023/08/22 07:23:38;;;;;;;14.93;2.63;;;19.50;99.90;;;;;;4943702;29;20453;-85
2023/08/22 07:26:04;;;;;;;15.02;2.58;;;19.50;99.90;;;;;;4938210;29;20039;-87
2023/08/22 07:28:29;;;;;;;13.95;2.88;;;19.60;99.90;;;;;;4950977;29;20527;-87
2023/08/22 07:30:55;;;;;;;8.45;2.22;;;19.60;99.90;;;;;;4947617;29;20393;-85
2023/08/22 07:33:20;;;;;;;7.28;2.05;;;19.60;99.90;;;;;;4945308;29;20044;-87
2023/08/22 07:35:46;;;;;;;8.05;1.90;;;19.60;99.90;;;;;;4949846;29;20035;-87
2023/08/22 07:38:13;;;;;;;12.23;2.42;;;19.70;99.90;;;;;;4948406;28;20027;-84
2023/08/22 07:40:40;;;;;;;9.57;1.98;;;19.70;99.90;;;;;;4947465;29;20445;-86
2023/08/22 07:43:06;;;;;;;6.70;2.15;;;19.80;99.90;;;;;;4951143;28;20513;-85
2023/08/22 07:45:32;;;;;;;7.43;2.30;;;19.90;99.90;;;;;;4941652;29;20046;-86
2023/08/22 07:47:58;;;;;;;6.15;1.63;;;20.00;99.90;;;;;;4950493;29;20110;-87
2023/08/22 07:50:24;;;;;;;7.88;2.15;;;20.20;99.90;;;;;;4951189;29;20507;-85
2023/08/22 07:52:49;;;;;;;6.80;2.28;;;20.30;99.90;;;;;;4941924;29;20031;-87
2023/08/22 07:55:15;;;;;;;4.88;1.90;;;20.40;99.90;;;;;;4944567;29;20039;-88
2023/08/22 07:57:42;;;;;;;7.38;2.53;;;20.40;99.90;;;;;;4946989;29;20038;-84
2023/08/22 08:00:11;;;;;;;7.60;2.45;;;20.60;99.90;;;;;;4945411;29;20094;-87
2023/08/22 08:02:40;;;;;;;7.95;1.85;;;20.60;99.90;;;;;;4948307;28;20020;-86
2023/08/22 08:05:06;;;;;;;8.57;1.95;;;20.70;99.90;;;;;;4950784;28;20027;-87
2023/08/22 08:07:33;;;;;;;11.50;2.28;;;20.70;99.90;;;;;;4934634;29;20138;-87
2023/08/22 08:09:58;;;;;;;5.28;1.70;;;20.70;99.90;;;;;;4945914;29;20027;-85
2023/08/22 08:12:24;;;;;;;10.70;2.33;;;20.80;99.90;;;;;;4943591;28;20613;-87
2023/08/22 08:14:50;;;;;;;9.30;2.03;;;20.90;99.90;;;;;;4945139;29;20035;-86
2023/08/22 08:17:19;;;;;;;9.18;2.28;;;21.00;99.90;;;;;;4937298;28;20474;-88
2023/08/22 08:19:45;;;;;;;8.38;2.25;;;21.10;99.90;;;;;;4943700;29;20058;-86
2023/08/22 08:22:11;;;;;;;7.22;3.00;;;21.10;99.90;;;;;;4937085;28;20031;-87
2023/08/22 08:24:37;;;;;;;16.15;2.80;;;21.10;99.90;;;;;;4945622;28;20039;-87
2023/08/22 08:27:03;;;;;;;6.35;2.10;;;21.30;99.90;;;;;;4939762;28;20031;-86
2023/08/22 08:29:29;;;;;;;10.27;2.15;;;21.30;99.90;;;;;;4943508;28;20039;-86
2023/08/22 08:31:56;;;;;;;17.65;2.20;;;21.40;99.90;;;;;;4945344;28;20042;-86
2023/08/22 08:34:24;;;;;;;6.57;2.30;;;21.50;99.90;;;;;;4934378;29;20040;-85
2023/08/22 08:36:50;;;;;;;10.57;3.03;;;21.60;99.90;;;;;;4939817;29;20039;-87
2023/08/22 08:39:17;;;;;;;4.03;1.83;;;21.70;99.90;;;;;;4939477;28;20019;-86
2023/08/22 08:41:54;;;;;;;14.35;2.97;;;21.70;99.90;;;;;;4945474;29;20042;-86
2023/08/22 08:44:21;;;;;;;11.20;2.33;;;21.80;99.90;;;;;;4923213;29;20074;-86
2023/08/22 08:46:47;;;;;;;9.13;2.00;;;21.90;99.90;;;;;;4936372;29;20331;-87
2023/08/22 08:49:15;;;;;;;11.38;2.13;;;21.90;99.90;;;;;;4942284;29;20046;-85
2023/08/22 08:51:42;;;;;;;11.98;2.30;;;21.90;99.90;;;;;;4944116;29;20489;-87
2023/08/22 08:54:09;;;;;;;16.20;2.65;;;21.90;99.90;;;;;;4943058;28;20062;-86
2023/08/22 08:56:34;;;;;;;13.68;2.45;;;21.90;99.90;;;;;;4947310;29;20126;-89
2023/08/22 08:59:00;;;;;;;7.72;2.50;;;21.90;99.90;;;;;;4938865;29;20131;-83
2023/08/22 09:01:26;;;;;;;71.50;9.90;;;22.00;99.90;;;;;;4941609;29;20031;-86
2023/08/22 09:03:52;;;;;;;11.85;2.30;;;22.00;99.90;;;;;;4944676;29;20027;-88
2023/08/22 09:06:20;;;;;;;9.50;1.70;;;22.00;99.90;;;;;;4947034;28;20023;-86
2023/08/22 09:09:09;;;;;;;19.88;3.45;;;22.00;99.90;;;;;;4944526;29;20436;-85
2023/08/22 09:11:40;;;;;;;10.70;2.35;;;22.00;99.90;;;;;;4919239;29;20155;-86
2023/08/22 09:14:06;;;;;;;8.27;2.17;;;22.00;99.90;;;;;;4946051;29;21071;-86
2023/08/22 09:16:32;;;;;;;5.70;2.13;;;22.10;99.90;;;;;;4941648;29;20446;-87
2023/08/22 09:19:01;;;;;;;8.82;3.15;;;22.10;99.90;;;;;;4928877;29;20058;-86
2023/08/22 09:21:31;;;;;;;8.77;2.75;;;22.20;99.90;;;;;;4946458;29;20075;-83
2023/08/22 09:24:08;;;;;;;6.95;2.33;;;22.20;99.90;;;;;;4941349;28;20070;-87
2023/08/22 09:26:34;;;;;;;5.85;2.40;;;22.30;99.90;;;;;;4941114;29;20456;-85
2023/08/22 09:29:07;;;;;;;3.40;1.95;;;22.40;99.90;;;;;;4935680;28;20035;-86
2023/08/22 09:31:35;;;;;;;9.35;2.67;;;22.50;99.90;;;;;;4945002;28;20043;-88
2023/08/22 09:34:12;;;;;;;5.75;2.22;;;22.50;99.90;;;;;;4943116;29;20093;-83
2023/08/22 09:36:50;;;;;;;11.15;2.53;;;22.50;99.90;;;;;;4942874;28;20039;-85
2023/08/22 09:39:16;;;;;;;10.48;2.28;;;22.60;99.90;;;;;;4940644;29;20086;-85
2023/08/22 09:41:42;;;;;;;10.35;2.63;;;22.70;99.90;;;;;;4943008;28;20047;-85
2023/08/22 09:44:11;;;;;;;7.28;2.40;;;22.80;99.90;;;;;;4946618;28;20123;-86
2023/08/22 09:46:41;;;;;;;6.13;2.03;;;22.70;99.90;;;;;;4939522;29;20102;-85
2023/08/22 09:49:11;;;;;;;6.90;2.53;;;22.70;99.90;;;;;;4942467;28;20553;-86
2023/08/22 09:51:38;;;;;;;6.72;2.40;;;22.70;99.90;;;;;;4933525;29;20107;-87
2023/08/22 09:54:06;;;;;;;6.78;1.88;;;22.80;99.90;;;;;;4940303;28;20042;-89
2023/08/22 09:56:32;;;;;;;10.35;2.78;;;22.80;99.90;;;;;;4920777;29;20042;-87
2023/08/22 09:59:01;;;;;;;9.88;2.42;;;22.90;99.90;;;;;;4939260;28;20028;-89
2023/08/22 10:01:33;;;;;;;22.00;2.67;;;22.90;99.90;;;;;;4944884;28;20035;-87
2023/08/22 10:04:04;;;;;;;9.15;2.55;;;23.00;99.90;;;;;;4920887;29;20484;-87
2023/08/22 10:06:33;;;;;;;8.80;2.60;;;23.00;99.90;;;;;;4933870;29;20497;-87
2023/08/22 10:09:00;;;;;;;9.32;2.80;;;23.00;99.90;;;;;;4937595;28;20032;-86
2023/08/22 10:11:28;;;;;;;5.15;2.35;;;23.10;99.90;;;;;;4943071;28;20035;-87
2023/08/22 10:13:54;;;;;;;6.35;2.17;;;23.10;99.90;;;;;;4939472;28;20035;-86
2023/08/22 10:16:29;;;;;;;7.75;2.40;;;23.20;99.90;;;;;;4945760;29;20519;-88
2023/08/22 10:19:02;;;;;;;6.68;2.45;;;23.20;99.90;;;;;;4945716;28;20035;-86
2023/08/22 10:21:33;;;;;;;6.80;2.25;;;23.10;99.90;;;;;;4941916;28;20046;-87
2023/08/22 10:23:59;;;;;;;6.85;2.38;;;23.10;99.90;;;;;;4944177;28;20082;-87
2023/08/22 10:26:47;;;;;;;8.45;2.53;;;23.10;99.90;;;;;;4947507;28;20433;-85
2023/08/22 10:29:16;;;;;;;10.57;2.40;;;23.10;99.90;;;;;;4939078;28;20027;-88
2023/08/22 10:32:11;;;;;;;4.57;2.13;;;23.10;99.90;;;;;;4941893;29;20047;-89
2023/08/22 10:34:40;;;;;;;4.47;1.80;;;23.00;99.90;;;;;;4918966;29;20036;-88
2023/08/22 10:37:25;;;;;;;11.27;2.47;;;23.00;99.90;;;;;;4942339;28;20471;-88
2023/08/22 10:39:52;;;;;;;3.97;1.70;;;23.00;99.90;;;;;;4949201;28;20156;-86
2023/08/22 10:42:20;;;;;;;14.82;2.28;;;23.00;99.90;;;;;;4941358;28;20051;-87
2023/08/22 10:44:48;;;;;;;13.27;2.53;;;23.10;99.90;;;;;;4942790;29;20529;-89
2023/08/22 10:47:21;;;;;;;12.35;2.38;;;23.20;99.90;;;;;;4951216;29;20117;-88
2023/08/22 10:49:55;;;;;;;7.30;2.00;;;23.40;99.90;;;;;;4945048;29;20401;-88
2023/08/22 10:52:37;;;;;;;23.48;3.55;;;23.50;99.90;;;;;;4939796;28;20032;-86
2023/08/22 10:55:03;;;;;;;13.45;2.40;;;23.60;99.90;;;;;;4943845;28;20130;-86
2023/08/22 10:57:31;;;;;;;14.18;3.03;;;23.70;99.90;;;;;;4949951;29;20122;-91
2023/08/22 10:59:59;;;;;;;8.05;2.53;;;23.70;99.90;;;;;;4948720;28;20047;-88
2023/08/22 11:02:33;;;;;;;12.55;2.85;;;23.90;99.90;;;;;;4940263;29;20115;-89
2023/08/22 11:05:00;;;;;;;9.57;2.60;;;24.00;99.90;;;;;;4946823;28;20024;-89
2023/08/22 11:07:28;;;;;;;13.48;2.90;;;24.00;99.90;;;;;;4951740;29;20045;-86
2023/08/22 11:09:54;;;;;;;9.65;2.40;;;24.10;99.90;;;;;;4937893;29;20062;-86
2023/08/22 11:12:24;;;;;;;7.38;2.60;;;24.10;99.90;;;;;;4944571;29;20323;-88
2023/08/22 11:14:52;;;;;;;14.40;3.85;;;24.10;99.90;;;;;;4950142;28;20509;-88
2023/08/22 11:17:20;;;;;;;8.68;2.63;;;24.20;99.90;;;;;;4944762;29;20047;-87
2023/08/22 11:19:46;;;;;;;9.82;2.80;;;24.20;99.90;;;;;;4946623;29;20362;-93
2023/08/22 11:22:13;;;;;;;11.52;2.60;;;24.20;99.90;;;;;;4946391;29;20087;-85
2023/08/22 11:24:46;;;;;;;6.45;2.67;;;24.20;99.90;;;;;;4944458;29;20027;-86
2023/08/22 11:27:15;;;;;;;20.75;3.25;;;24.10;99.90;;;;;;4932179;29;20032;-88
2023/08/22 11:29:52;;;;;;;6.03;2.60;;;24.10;99.90;;;;;;4949139;28;20023;-86
2023/08/22 11:32:25;;;;;;;9.98;2.47;;;24.10;99.90;;;;;;4950844;29;20027;-86
2023/08/22 11:35:03;;;;;;;8.27;2.80;;;24.20;99.90;;;;;;4946578;29;20024;-90
2023/08/22 11:37:40;;;;;;;5.80;2.72;;;24.20;99.90;;;;;;4947963;29;20071;-86
2023/08/22 11:40:09;;;;;;;12.43;3.05;;;24.20;99.90;;;;;;4938908;28;20028;-88
2023/08/22 11:42:38;;;;;;;17.40;3.72;;;24.30;99.90;;;;;;4950491;28;20023;-89
2023/08/22 11:45:03;;;;;;;12.38;2.60;;;24.50;99.90;;;;;;4928951;29;20040;-87
2023/08/22 11:47:37;;;;;;;7.90;2.72;;;24.50;99.90;;;;;;4939860;28;20033;-91
2023/08/22 11:50:04;;;;;;;11.15;2.55;;;24.50;99.90;;;;;;4948735;29;20042;-84
2023/08/22 11:52:30;;;;;;;8.35;2.85;;;24.50;99.90;;;;;;4936939;28;20034;-87
2023/08/22 11:55:03;;;;;;;6.50;2.50;;;24.50;99.90;;;;;;4939677;28;20075;-87
2023/08/22 11:57:29;;;;;;;8.68;2.83;;;24.50;99.90;;;;;;4939065;28;20042;-87
2023/08/22 12:00:16;;;;;;;7.43;2.90;;;24.40;99.90;;;;;;4940890;29;20031;-88
2023/08/22 12:02:50;;;;;;;10.18;2.80;;;24.40;99.90;;;;;;4944615;28;20031;-89
2023/08/22 12:05:28;;;;;;;9.40;3.17;;;24.40;99.90;;;;;;4937875;28;20023;-88
2023/08/22 12:07:53;;;;;;;10.13;3.08;;;24.40;99.90;;;;;;4918412;29;20023;-88
2023/08/22 12:10:19;;;;;;;11.05;2.70;;;24.40;99.90;;;;;;4941193;29;20035;-87
2023/08/22 12:12:45;;;;;;;14.18;2.75;;;24.40;99.90;;;;;;4939386;29;20031;-90
2023/08/22 12:15:10;;;;;;;7.22;2.90;;;24.40;99.90;;;;;;4938706;28;20039;-88
2023/08/22 12:17:36;;;;;;;7.53;3.17;;;24.40;99.90;;;;;;4944012;28;20122;-87
2023/08/22 12:20:01;;;;;;;18.00;3.72;;;24.40;99.90;;;;;;4939660;29;20034;-89
2023/08/22 12:22:27;;;;;;;13.13;3.25;;;24.40;99.90;;;;;;4940234;29;20035;-86
2023/08/22 12:24:52;;;;;;;11.88;3.10;;;24.40;99.90;;;;;;4941404;29;20126;-90
2023/08/22 12:27:18;;;;;;;12.30;3.38;;;24.40;99.90;;;;;;4940873;29;20024;-87
2023/08/22 12:29:44;;;;;;;5.80;3.00;;;24.50;99.90;;;;;;4945789;29;20036;-87
2023/08/22 12:32:10;;;;;;;11.13;3.35;;;24.60;99.90;;;;;;4938017;28;20043;-88
2023/08/22 12:34:36;;;;;;;12.07;3.22;;;24.70;99.90;;;;;;4946666;29;20027;-87
2023/08/22 12:37:02;;;;;;;8.10;3.17;;;24.80;99.90;;;;;;4935836;29;20074;-85
2023/08/22 12:39:27;;;;;;;11.70;3.58;;;24.90;99.90;;;;;;4947799;28;20031;-87
2023/08/22 12:41:53;;;;;;;9.35;2.92;;;24.80;99.90;;;;;;4944492;28;21105;-89
2023/08/22 12:44:18;;;;;;;13.93;3.47;;;24.70;99.90;;;;;;4948829;28;20143;-89